Time;durP1;ratioP1;P1;durP2;ratioP2;P2;SDS_P1;SDS_P2;PMS_P1;PMS_P2;Temp;Humidity;BMP_temperature;BMP_pressure;BME280_temperature;BME280_humidity;BME280_pressure;Samples;Min_cycle;Max_cycle;Signal;HPM_P1;HPM_P2
2021/06/18 00:00:30;;;;;;;10.77;9.30;;;23.40;64.00;22.90;101341.00;;;;5039699;28;20504;-68
2021/06/18 00:02:57;;;;;;;12.10;8.82;;;23.30;65.00;22.80;101337.00;;;;5041553;28;20052;-68
2021/06/18 00:05:25;;;;;;;;;;;23.30;64.10;22.70;101334.00;;;;5042635;28;20063;-68
2021/06/18 00:07:51;;;;;;;14.00;9.68;;;23.20;66.60;22.70;101323.00;;;;5040021;28;19931;-67
2021/06/18 00:10:24;;;;;;;12.40;9.65;;;23.20;64.20;22.70;101325.00;;;;5038112;28;20381;-68
2021/06/18 00:12:51;;;;;;;12.90;9.88;;;23.10;64.10;22.70;101328.00;;;;5039844;28;20052;-68
2021/06/18 00:15:17;;;;;;;12.95;10.50;;;23.10;64.50;22.70;101322.00;;;;5056273;28;20068;-68
2021/06/18 00:17:43;;;;;;;12.38;9.95;;;23.10;64.80;22.60;101320.00;;;;5042453;28;20069;-68
2021/06/18 00:20:11;;;;;;;11.07;9.15;;;23.10;63.90;22.60;101313.00;;;;5006754;28;20128;-68
2021/06/18 00:22:38;;;;;;;16.15;11.00;;;23.00;65.20;22.60;101305.00;;;;5038987;28;20491;-68
2021/06/18 00:25:07;;;;;;;14.38;11.25;;;23.00;65.40;22.60;101307.00;;;;5038704;28;20606;-68
2021/06/18 00:27:33;;;;;;;15.80;11.18;;;23.00;65.50;22.50;101308.00;;;;5039712;28;20041;-68
2021/06/18 00:29:59;;;;;;;14.45;11.15;;;22.90;65.50;22.50;101305.00;;;;5036681;28;20070;-68
2021/06/18 00:32:25;;;;;;;14.77;10.50;;;22.90;65.70;22.50;101305.00;;;;5030536;28;20117;-68
2021/06/18 00:34:51;;;;;;;15.43;12.15;;;22.90;65.40;22.50;101294.00;;;;5038907;28;20048;-68
2021/06/18 00:37:17;;;;;;;12.83;11.40;;;22.90;66.00;22.50;101294.00;;;;5039960;28;20033;-68
2021/06/18 00:39:43;;;;;;;18.10;13.43;;;22.90;66.10;22.50;101292.00;;;;5015258;28;20496;-68
2021/06/18 00:42:09;;;;;;;16.30;13.60;;;22.90;66.20;22.40;101300.00;;;;5039295;28;20341;-67
2021/06/18 00:44:36;;;;;;;15.70;13.13;;;22.90;66.50;22.40;101297.00;;;;5040106;28;20048;-69
2021/06/18 00:47:03;;;;;;;19.92;14.02;;;22.90;66.40;22.40;101299.00;;;;5039885;28;20061;-69
2021/06/18 00:49:29;;;;;;;18.50;14.63;;;22.80;66.80;22.30;101297.00;;;;5038070;28;20599;-69
2021/06/18 00:51:56;;;;;;;16.90;13.70;;;22.80;67.00;22.30;101290.00;;;;5022740;28;20124;-69
2021/06/18 00:54:29;;;;;;;17.63;14.82;;;22.80;67.90;22.30;101296.00;;;;5037486;28;20044;-69
2021/06/18 00:56:59;;;;;;;16.00;13.32;;;22.70;67.50;22.20;101294.00;;;;5021788;28;20504;-69
2021/06/18 00:59:25;;;;;;;18.00;14.13;;;22.70;67.10;22.20;101296.00;;;;5038322;28;20045;-69
2021/06/18 01:01:52;;;;;;;17.77;14.57;;;22.70;67.80;22.20;101294.00;;;;5046111;28;20063;-70
2021/06/18 01:04:23;;;;;;;18.27;15.13;;;22.60;67.70;22.20;101289.00;;;;5037064;28;20503;-69
2021/06/18 01:07:03;;;;;;;22.17;16.17;;;22.60;68.00;22.20;101295.00;;;;5009475;28;20076;-69
2021/06/18 01:09:40;;;;;;;20.88;15.25;;;22.60;68.40;22.20;101286.00;;;;5038563;28;20049;-69
2021/06/18 01:12:14;;;;;;;19.65;17.17;;;22.60;68.10;22.10;101277.00;;;;5034819;28;20551;-69
2021/06/18 01:15:08;;;;;;;20.02;17.02;;;22.60;68.20;22.00;101274.00;;;;5035516;28;20051;-68
2021/06/18 01:17:50;;;;;;;17.92;15.73;;;22.50;68.10;22.00;101262.00;;;;5040794;28;20044;-68
2021/06/18 01:20:42;;;;;;;19.17;16.83;;;22.50;68.40;22.00;101248.00;;;;5052759;28;20697;-68
2021/06/18 01:23:33;;;;;;;24.85;16.70;;;22.50;68.70;21.90;101229.00;;;;5032682;28;20045;-68
2021/06/18 01:26:22;;;;;;;23.02;17.88;;;22.50;69.10;21.90;101219.00;;;;5030058;28;20453;-68
2021/06/18 01:28:53;;;;;;;21.83;17.35;;;22.40;68.90;21.90;101225.00;;;;5038135;28;20499;-68
2021/06/18 01:31:23;;;;;;;22.08;17.65;;;22.40;69.00;21.90;101233.00;;;;5039308;28;20052;-68
2021/06/18 01:33:59;;;;;;;22.58;16.52;;;22.30;69.40;21.80;101245.00;;;;5038607;28;20496;-68
2021/06/18 01:36:26;;;;;;;27.75;17.95;;;22.30;69.40;21.80;101242.00;;;;5041113;28;20044;-68
2021/06/18 01:38:55;;;;;;;23.23;17.98;;;22.30;69.60;21.80;101257.00;;;;5032389;28;20148;-68
2021/06/18 01:41:26;;;;;;;25.67;18.67;;;22.30;69.60;21.80;101256.00;;;;5030879;28;20047;-69
2021/06/18 01:43:54;;;;;;;22.40;18.75;;;22.20;69.80;21.80;101271.00;;;;5038476;28;20102;-68
2021/06/18 01:46:25;;;;;;;25.33;20.00;;;22.20;69.60;21.80;101270.00;;;;5036259;28;20037;-68
2021/06/18 01:48:57;;;;;;;24.48;20.45;;;22.20;70.10;21.70;101265.00;;;;5037143;28;20049;-69
2021/06/18 01:51:29;;;;;;;24.33;21.08;;;22.20;70.20;21.70;101272.00;;;;5036095;28;20037;-69
2021/06/18 01:53:58;;;;;;;25.60;19.10;;;22.20;70.40;21.70;101275.00;;;;5031310;28;20094;-68
2021/06/18 01:56:25;;;;;;;24.08;20.73;;;22.20;70.30;21.70;101282.00;;;;5057710;28;20048;-69
2021/06/18 01:58:56;;;;;;;23.35;19.02;;;22.20;70.40;21.70;101280.00;;;;5040069;28;20455;-69
2021/06/18 02:01:24;;;;;;;22.92;20.15;;;22.20;70.60;21.70;101287.00;;;;5039495;28;20099;-68
2021/06/18 02:03:51;;;;;;;22.65;19.67;;;22.20;70.60;21.80;101295.00;;;;5052065;28;20056;-68
2021/06/18 02:06:21;;;;;;;25.17;20.77;;;22.20;69.40;21.80;101291.00;;;;5027065;28;20581;-69
2021/06/18 02:08:53;;;;;;;25.55;20.83;;;22.20;70.60;21.80;101278.00;;;;5025433;28;20095;-68
2021/06/18 02:11:23;;;;;;;24.90;19.90;;;22.20;70.60;21.70;101288.00;;;;5018513;28;20045;-69
2021/06/18 02:13:49;;;;;;;25.77;20.17;;;22.20;70.90;21.80;101296.00;;;;5037754;28;20051;-68
2021/06/18 02:16:17;;;;;;;23.83;19.52;;;22.20;70.80;21.80;101298.00;;;;5039846;28;20566;-68
2021/06/18 02:18:44;;;;;;;24.98;19.83;;;22.20;70.80;21.80;101296.00;;;;5055426;28;20033;-69
2021/06/18 02:21:12;;;;;;;25.80;20.10;;;22.20;70.90;21.80;101288.00;;;;5036119;28;20041;-68
2021/06/18 02:23:41;;;;;;;25.30;19.55;;;22.20;70.90;21.80;101290.00;;;;5036604;28;20444;-69
2021/06/18 02:26:07;;;;;;;21.42;18.48;;;22.20;71.00;21.80;101292.00;;;;5022654;28;20048;-68
2021/06/18 02:28:34;;;;;;;24.42;20.60;;;22.20;70.80;21.80;101292.00;;;;5041082;28;20086;-68
2021/06/18 02:31:01;;;;;;;29.02;21.73;;;22.20;70.20;21.80;101295.00;;;;5041407;28;20048;-68
2021/06/18 02:33:27;;;;;;;22.23;18.88;;;22.20;71.00;21.80;101296.00;;;;5020749;28;20061;-69
2021/06/18 02:35:53;;;;;;;20.17;17.43;;;22.20;71.10;21.80;101288.00;;;;5032212;28;20767;-68
2021/06/18 02:38:19;;;;;;;22.20;18.20;;;22.20;70.80;21.80;101289.00;;;;5033965;28;20073;-70
2021/06/18 02:40:46;;;;;;;25.55;21.27;;;22.20;70.90;21.80;101280.00;;;;5044548;28;20603;-69
2021/06/18 02:43:13;;;;;;;22.17;17.48;;;22.20;71.00;21.80;101273.00;;;;5042136;28;20554;-70
2021/06/18 02:45:39;;;;;;;21.02;16.80;;;22.20;71.10;21.80;101275.00;;;;5043446;28;20041;-69
2021/06/18 02:48:27;;;;;;;22.20;18.00;;;22.20;71.00;21.80;101272.00;;;;5040612;28;20029;-69
2021/06/18 02:51:07;;;;;;;25.27;20.55;;;22.20;70.90;21.80;101262.00;;;;5045553;28;20325;-68
2021/06/18 02:53:57;;;;;;;25.23;20.60;;;22.20;71.10;21.70;101268.00;;;;5046866;28;20040;-70
2021/06/18 02:56:30;;;;;;;23.75;19.45;;;22.20;71.40;21.70;101268.00;;;;5040641;28;20495;-70
2021/06/18 02:59:30;;;;;;;26.10;20.50;;;22.20;71.30;21.60;101266.00;;;;5042310;28;20385;-68
2021/06/18 03:01:59;;;;;;;29.33;22.10;;;22.10;71.00;21.60;101253.00;;;;5041532;28;20111;-69
2021/06/18 03:04:27;;;;;;;24.70;20.33;;;22.10;71.50;21.60;101244.00;;;;5038095;28;20099;-69
2021/06/18 03:06:59;;;;;;;24.67;21.45;;;22.10;71.80;21.50;101247.00;;;;5026333;28;20147;-69
2021/06/18 03:09:54;;;;;;;23.65;20.17;;;22.00;73.00;21.50;101253.00;;;;5042794;28;20087;-68
2021/06/18 03:12:25;;;;;;;27.98;23.33;;;22.00;71.90;21.50;101257.00;;;;5036684;28;20781;-69
2021/06/18 03:15:06;;;;;;;26.92;23.08;;;22.00;72.20;21.40;101260.00;;;;5034932;28;20086;-69
2021/06/18 03:17:36;;;;;;;27.42;23.13;;;21.90;72.10;21.40;101273.00;;;;5040748;28;20098;-68
2021/06/18 03:20:09;;;;;;;31.73;23.73;;;21.90;72.10;21.40;101281.00;;;;5041758;28;20569;-69
2021/06/18 03:22:38;;;;;;;29.13;23.83;;;21.90;71.70;21.40;101278.00;;;;5022402;28;20063;-69
2021/06/18 03:25:05;;;;;;;26.17;23.20;;;21.90;72.50;21.40;101265.00;;;;5041015;28;20499;-69
2021/06/18 03:27:34;;;;;;;29.92;22.90;;;21.90;72.60;21.40;101265.00;;;;5039688;28;20037;-68
2021/06/18 03:30:01;;;;;;;29.58;23.63;;;21.90;72.00;21.50;101266.00;;;;5040961;28;20045;-68
2021/06/18 03:32:28;;;;;;;30.85;22.55;;;21.90;72.50;21.50;101262.00;;;;5033820;28;20131;-68
2021/06/18 03:34:55;;;;;;;35.13;25.70;;;21.90;72.40;21.50;101251.00;;;;5042256;28;20045;-68
2021/06/18 03:37:21;;;;;;;25.88;22.77;;;21.90;72.70;21.50;101258.00;;;;5037477;28;20978;-68
2021/06/18 03:39:48;;;;;;;29.25;23.70;;;21.90;72.50;21.50;101253.00;;;;5043122;28;20114;-68
2021/06/18 03:42:15;;;;;;;30.70;24.05;;;21.90;72.60;21.50;101269.00;;;;5041194;28;20587;-68
2021/06/18 03:44:42;;;;;;;28.88;23.70;;;21.90;72.60;21.40;101276.00;;;;5041426;28;20419;-68
2021/06/18 03:47:10;;;;;;;27.83;24.33;;;21.90;72.70;21.50;101288.00;;;;5043187;28;20033;-69
2021/06/18 03:49:36;;;;;;;26.05;22.05;;;21.90;72.50;21.50;101296.00;;;;5041810;28;20045;-68
2021/06/18 03:52:03;;;;;;;25.25;21.20;;;21.90;71.70;21.60;101346.00;;;;5040121;28;20029;-70
2021/06/18 03:54:32;;;;;;;30.80;25.23;;;21.90;72.50;21.60;101445.00;;;;5038291;28;20051;-69
2021/06/18 03:56:59;;;;;;;32.72;23.52;;;22.00;72.90;21.60;101458.00;;;;5041168;28;20572;-68
2021/06/18 03:59:26;;;;;;;31.17;23.98;;;22.00;74.40;21.70;101478.00;;;;5042812;28;20385;-69
2021/06/18 04:01:55;;;;;;;29.98;22.90;;;22.00;73.50;21.70;101412.00;;;;5033375;28;20075;-68
2021/06/18 04:04:23;;;;;;;26.52;21.95;;;21.90;73.40;21.60;101337.00;;;;5025418;28;20566;-69
2021/06/18 04:06:51;;;;;;;28.67;22.10;;;22.00;73.20;21.70;101303.00;;;;5039125;28;20989;-68
2021/06/18 04:09:18;;;;;;;23.92;19.75;;;22.10;73.10;21.70;101308.00;;;;5038768;28;20116;-68
2021/06/18 04:11:47;;;;;;;;;;;22.10;73.10;21.60;101332.00;;;;5055479;28;20041;-68
2021/06/18 04:14:14;;;;;;;25.60;18.92;;;22.10;73.20;21.80;101348.00;;;;5051986;28;19927;-68
2021/06/18 04:16:41;;;;;;;21.58;17.75;;;22.10;72.10;21.90;101350.00;;;;5039775;28;20048;-68
2021/06/18 04:19:08;;;;;;;25.00;18.45;;;22.20;72.10;21.90;101390.00;;;;5040117;28;20056;-68
2021/06/18 04:21:40;;;;;;;27.27;19.48;;;22.30;71.90;22.00;101478.00;;;;5038480;28;20103;-68
2021/06/18 04:24:07;;;;;;;21.55;18.25;;;22.30;72.10;22.10;101518.00;;;;5028279;28;20649;-68
2021/06/18 04:26:33;;;;;;;21.30;16.38;;;22.40;72.10;22.10;101525.00;;;;5033582;28;20080;-68
2021/06/18 04:28:59;;;;;;;20.27;14.77;;;22.40;72.30;22.10;101512.00;;;;5039871;28;20527;-68
2021/06/18 04:31:25;;;;;;;21.00;14.50;;;22.40;70.90;22.10;101487.00;;;;5025606;28;20029;-68
2021/06/18 04:33:51;;;;;;;19.53;14.03;;;22.50;71.90;22.20;101427.00;;;;5057050;28;20076;-69
2021/06/18 04:36:16;;;;;;;24.10;14.00;;;22.50;72.10;22.20;101355.00;;;;5040262;28;21122;-70
2021/06/18 04:38:42;;;;;;;23.97;13.10;;;22.60;72.00;22.10;101344.00;;;;5040265;28;20053;-70
2021/06/18 04:41:08;;;;;;;19.50;12.93;;;22.50;72.50;22.10;101360.00;;;;5021930;28;20106;-70
2021/06/18 04:43:34;;;;;;;12.67;8.37;;;22.50;73.30;22.10;101355.00;;;;5039702;28;20428;-70
2021/06/18 04:46:00;;;;;;;19.83;10.27;;;22.40;72.20;22.00;101357.00;;;;5039099;28;20029;-70
2021/06/18 04:48:28;;;;;;;15.63;11.10;;;22.40;72.50;21.90;101348.00;;;;5037808;28;20368;-70
2021/06/18 04:50:55;;;;;;;14.82;11.85;;;22.30;73.10;21.70;101347.00;;;;5040611;28;20288;-70
2021/06/18 04:53:21;;;;;;;19.13;13.52;;;22.20;74.30;21.70;101339.00;;;;5037532;28;20049;-69
2021/06/18 04:55:47;;;;;;;14.65;12.15;;;22.10;74.40;21.70;101339.00;;;;5038913;28;20048;-70
2021/06/18 04:58:14;;;;;;;15.43;13.70;;;22.10;73.50;21.70;101335.00;;;;5041947;28;20504;-69
2021/06/18 05:00:40;;;;;;;;;;;22.20;74.70;21.60;101321.00;;;;5042262;28;20123;-70
2021/06/18 05:03:07;;;;;;;16.02;12.70;;;22.10;75.10;21.70;101334.00;;;;5020759;28;19936;-69
2021/06/18 05:05:33;;;;;;;17.50;13.80;;;22.10;75.00;21.80;101337.00;;;;5041116;28;20083;-69
2021/06/18 05:07:59;;;;;;;20.53;12.77;;;22.20;75.10;21.90;101329.00;;;;5038772;28;20135;-68
2021/06/18 05:10:26;;;;;;;16.10;10.63;;;22.10;74.90;21.90;101336.00;;;;5019672;28;20615;-69
2021/06/18 05:12:52;;;;;;;14.13;10.70;;;22.30;74.20;22.00;101344.00;;;;5040199;28;20130;-69
2021/06/18 05:15:19;;;;;;;14.80;10.43;;;22.40;74.70;22.20;101343.00;;;;5037778;28;20076;-69
2021/06/18 05:17:45;;;;;;;20.23;14.05;;;22.40;74.40;22.20;101338.00;;;;5039628;28;20536;-69
2021/06/18 05:20:12;;;;;;;22.38;16.05;;;22.50;75.30;22.30;101337.00;;;;5040750;28;20037;-68
2021/06/18 05:22:39;;;;;;;22.60;15.50;;;22.60;75.00;22.20;101344.00;;;;5006074;28;20849;-70
2021/06/18 05:25:06;;;;;;;19.67;14.60;;;22.60;75.40;22.30;101340.00;;;;5039530;28;20037;-68
2021/06/18 05:27:33;;;;;;;16.50;12.20;;;22.60;75.40;22.40;101336.00;;;;5040442;28;20029;-68
2021/06/18 05:29:59;;;;;;;14.52;11.48;;;22.70;75.80;22.50;101352.00;;;;5039591;28;20048;-69
2021/06/18 05:32:25;;;;;;;21.33;14.73;;;22.70;75.50;22.40;101338.00;;;;5041764;28;20060;-69
2021/06/18 05:34:51;;;;;;;20.70;13.80;;;22.80;75.50;22.50;101331.00;;;;5040213;28;20142;-69
2021/06/18 05:37:17;;;;;;;19.95;13.23;;;22.80;74.70;22.50;101340.00;;;;5037237;28;20048;-69
2021/06/18 05:39:44;;;;;;;18.77;14.40;;;22.80;75.30;22.40;101342.00;;;;5054776;28;20037;-69
2021/06/18 05:42:10;;;;;;;;;;;22.80;75.30;22.30;101336.00;;;;5020514;28;20315;-69
2021/06/18 05:44:36;;;;;;;21.40;15.45;;;22.70;76.60;22.30;101331.00;;;;5040225;28;19928;-69
2021/06/18 05:47:02;;;;;;;19.75;13.88;;;22.70;75.60;22.40;101330.00;;;;5038883;28;20034;-69
2021/06/18 05:49:28;;;;;;;15.00;12.88;;;22.70;75.80;22.30;101320.00;;;;5036329;28;20037;-69
2021/06/18 05:51:54;;;;;;;17.85;12.32;;;22.70;76.00;22.30;101326.00;;;;5036698;28;20545;-68
2021/06/18 05:54:20;;;;;;;17.47;12.50;;;22.70;75.80;22.30;101326.00;;;;5038280;28;20055;-69
2021/06/18 05:56:47;;;;;;;15.83;11.57;;;22.70;76.20;22.20;101334.00;;;;5039929;28;20048;-69
2021/06/18 05:59:13;;;;;;;17.95;13.10;;;22.60;76.20;22.20;101324.00;;;;5053295;28;20045;-70
2021/06/18 06:01:39;;;;;;;16.17;13.10;;;22.60;77.10;22.20;101316.00;;;;5043377;28;20041;-70
2021/06/18 06:04:05;;;;;;;15.70;11.67;;;22.60;75.80;22.30;101317.00;;;;5041913;28;20029;-68
2021/06/18 06:06:31;;;;;;;12.80;11.45;;;22.90;76.70;22.30;101325.00;;;;5059178;28;20069;-69
2021/06/18 06:08:57;;;;;;;16.03;11.37;;;22.70;76.30;22.40;101326.00;;;;5043542;28;20686;-66
2021/06/18 06:11:25;;;;;;;14.90;10.63;;;22.70;76.40;22.50;101329.00;;;;5044963;28;20036;-67
2021/06/18 06:13:58;;;;;;;13.32;10.50;;;22.80;76.10;22.60;101332.00;;;;5038731;28;20451;-67
2021/06/18 06:16:24;;;;;;;14.60;11.30;;;22.90;75.90;22.80;101328.00;;;;5037722;28;20049;-66
2021/06/18 06:18:50;;;;;;;17.02;10.93;;;23.00;76.10;23.10;101327.00;;;;5042422;28;20151;-67
2021/06/18 06:21:18;;;;;;;11.23;9.57;;;23.20;75.50;23.20;101324.00;;;;5039366;28;20079;-66
2021/06/18 06:23:44;;;;;;;13.68;9.95;;;23.40;74.90;23.40;101328.00;;;;5044879;28;20112;-66
2021/06/18 06:26:10;;;;;;;11.40;9.05;;;23.50;75.00;23.70;101334.00;;;;5040436;28;20041;-67
2021/06/18 06:28:36;;;;;;;10.65;8.40;;;23.70;74.10;23.80;101329.00;;;;5037275;28;20045;-67
2021/06/18 06:31:06;;;;;;;12.75;8.70;;;23.90;72.40;23.90;101334.00;;;;5041995;28;20045;-66
2021/06/18 06:33:32;;;;;;;11.80;8.93;;;24.10;72.40;24.00;101329.00;;;;5038218;28;20052;-67
2021/06/18 06:35:58;;;;;;;8.63;7.33;;;24.20;72.50;23.90;101329.00;;;;5037059;28;20052;-66
2021/06/18 06:38:24;;;;;;;11.23;7.95;;;24.10;71.70;23.90;101327.00;;;;5041047;28;20384;-66
2021/06/18 06:40:51;;;;;;;11.37;8.17;;;24.20;69.60;23.90;101334.00;;;;5044491;28;20048;-67
2021/06/18 06:43:19;;;;;;;8.45;7.65;;;24.20;71.10;23.90;101323.00;;;;5041092;28;20331;-66
2021/06/18 06:45:46;;;;;;;11.77;7.35;;;24.20;71.00;23.90;101326.00;;;;5039165;28;20049;-67
2021/06/18 06:48:12;;;;;;;12.18;7.85;;;24.20;69.60;24.00;101328.00;;;;5040517;28;20049;-66
2021/06/18 06:50:38;;;;;;;12.65;7.20;;;24.20;70.90;24.10;101332.00;;;;5038549;28;20040;-67
2021/06/18 06:53:07;;;;;;;12.68;7.95;;;24.30;71.10;24.20;101336.00;;;;5041545;28;20044;-66
2021/06/18 06:55:34;;;;;;;9.75;7.75;;;24.40;70.70;24.30;101340.00;;;;5038198;28;20503;-67
2021/06/18 06:58:00;;;;;;;15.13;9.13;;;24.50;70.50;24.50;101336.00;;;;5039534;28;22411;-67
2021/06/18 07:00:26;;;;;;;12.75;9.40;;;24.60;70.30;24.40;101344.00;;;;5041590;28;20053;-67
2021/06/18 07:02:53;;;;;;;11.38;9.20;;;24.60;69.30;24.40;101346.00;;;;5042896;28;20537;-67
2021/06/18 07:05:20;;;;;;;12.50;9.05;;;24.60;69.30;24.40;101355.00;;;;5042190;28;20053;-67
2021/06/18 07:07:46;;;;;;;10.13;8.60;;;24.70;69.40;24.50;101351.00;;;;5040953;28;20040;-67
2021/06/18 07:10:12;;;;;;;12.23;9.32;;;24.70;69.00;24.60;101356.00;;;;5038025;28;20571;-67
2021/06/18 07:12:38;;;;;;;11.45;9.73;;;24.80;68.90;24.80;101340.00;;;;5040855;28;20037;-67
2021/06/18 07:15:06;;;;;;;12.65;9.82;;;24.90;68.90;24.90;101341.00;;;;5038093;28;20049;-67
2021/06/18 07:17:32;;;;;;;13.90;10.55;;;25.00;68.70;24.90;101356.00;;;;5041464;28;20033;-66
2021/06/18 07:20:00;;;;;;;11.77;10.68;;;25.10;68.70;24.80;101356.00;;;;5040223;28;20033;-67
2021/06/18 07:22:27;;;;;;;13.23;10.35;;;25.00;68.30;24.70;101351.00;;;;5042644;28;20048;-67
2021/06/18 07:24:53;;;;;;;;;;;25.00;68.30;24.50;101350.00;;;;5039943;28;20033;-67
2021/06/18 07:27:23;;;;;;;12.80;10.10;;;25.00;68.30;24.60;101349.00;;;;5038391;28;19935;-67
2021/06/18 07:29:49;;;;;;;13.48;10.00;;;24.90;67.50;24.60;101344.00;;;;5039534;28;20075;-67
2021/06/18 07:32:16;;;;;;;12.30;9.55;;;24.90;68.80;24.60;101343.00;;;;5036217;28;20045;-67
2021/06/18 07:34:42;;;;;;;;;;;24.90;68.40;24.40;101346.00;;;;5042411;28;20103;-67
2021/06/18 07:37:08;;;;;;;12.43;10.98;;;24.90;67.90;24.40;101345.00;;;;5039155;28;20411;-67
2021/06/18 07:39:34;;;;;;;12.07;10.13;;;24.80;68.00;24.40;101350.00;;;;5036141;28;20037;-67
2021/06/18 07:42:00;;;;;;;11.52;10.32;;;24.70;67.90;24.40;101356.00;;;;5038923;28;20033;-67
2021/06/18 07:44:26;;;;;;;15.40;10.57;;;24.70;67.80;24.30;101343.00;;;;5054624;28;20037;-67
2021/06/18 07:46:52;;;;;;;12.32;10.85;;;24.70;67.00;24.30;101340.00;;;;5041185;28;20120;-67
2021/06/18 07:49:18;;;;;;;14.13;12.63;;;24.70;67.90;24.30;101329.00;;;;5022963;28;20029;-67
2021/06/18 07:51:44;;;;;;;12.93;11.50;;;24.60;67.60;24.10;101321.00;;;;5040125;28;20427;-67
2021/06/18 07:54:11;;;;;;;14.63;12.15;;;24.50;68.00;24.10;101324.00;;;;5043504;28;20075;-67
2021/06/18 07:56:42;;;;;;;14.90;13.23;;;24.40;66.90;24.10;101307.00;;;;5037069;28;20719;-67
2021/06/18 07:59:08;;;;;;;14.10;12.60;;;24.40;67.90;24.10;101304.00;;;;5034792;28;20049;-67
2021/06/18 08:01:34;;;;;;;17.45;15.23;;;24.40;68.40;24.10;101290.00;;;;5040651;28;20051;-67
2021/06/18 08:04:00;;;;;;;19.40;13.90;;;24.40;68.20;24.00;101285.00;;;;5021927;28;20491;-67
2021/06/18 08:06:26;;;;;;;17.23;14.43;;;24.40;68.50;24.00;101277.00;;;;5040435;28;20045;-67
2021/06/18 08:08:52;;;;;;;18.03;14.97;;;24.40;68.60;24.00;101277.00;;;;5040240;28;20300;-67
2021/06/18 08:11:18;;;;;;;17.83;15.90;;;24.30;68.70;23.90;101266.00;;;;5040230;28;20154;-67
2021/06/18 08:13:44;;;;;;;17.48;15.15;;;24.30;68.60;23.90;101265.00;;;;5039121;28;20298;-67
2021/06/18 08:16:10;;;;;;;19.50;15.60;;;24.20;68.60;23.80;101266.00;;;;5037957;28;20041;-67
2021/06/18 08:18:38;;;;;;;20.17;16.50;;;24.20;68.70;23.80;101256.00;;;;5040542;28;20043;-67
2021/06/18 08:21:05;;;;;;;17.83;15.93;;;24.20;67.30;23.80;101255.00;;;;5039961;28;20037;-67
2021/06/18 08:23:31;;;;;;;19.67;16.27;;;24.20;68.60;23.90;101260.00;;;;5052630;28;20140;-66
2021/06/18 08:25:58;;;;;;;17.73;15.73;;;24.20;68.60;24.00;101267.00;;;;5037125;28;20118;-63
2021/06/18 08:28:24;;;;;;;17.92;15.45;;;24.20;68.50;24.10;101271.00;;;;5036757;28;20147;-63
2021/06/18 08:30:51;;;;;;;40.42;17.85;;;23.90;66.70;24.20;101271.00;;;;5039055;28;20049;-64
2021/06/18 08:33:18;;;;;;;21.27;17.50;;;24.50;66.90;24.20;101270.00;;;;5038942;28;20173;-63
2021/06/18 08:35:45;;;;;;;22.55;16.63;;;24.40;67.90;24.30;101275.00;;;;5039077;28;20044;-65
2021/06/18 08:38:11;;;;;;;;;;;24.60;67.70;24.30;101265.00;;;;5038771;28;20049;-65
2021/06/18 08:40:37;;;;;;;30.63;18.90;;;24.60;67.50;24.50;101256.00;;;;5040288;28;20434;-64
2021/06/18 08:43:05;;;;;;;37.78;21.45;;;24.70;66.30;24.50;101261.00;;;;5041216;28;20111;-64
2021/06/18 08:45:32;;;;;;;19.88;17.08;;;24.80;67.30;24.60;101251.00;;;;5041160;28;20037;-64
2021/06/18 08:47:58;;;;;;;28.08;17.52;;;24.90;67.00;24.80;101261.00;;;;5039138;28;20060;-63
2021/06/18 08:50:24;;;;;;;;;;;25.00;67.00;24.80;101257.00;;;;5035894;28;20037;-64
2021/06/18 08:52:57;;;;;;;18.70;15.63;;;25.00;66.60;25.00;101272.00;;;;5038745;28;20484;-65
2021/06/18 08:55:27;;;;;;;17.17;15.32;;;25.20;66.70;25.20;101271.00;;;;5039149;28;20102;-65
2021/06/18 08:57:58;;;;;;;17.73;14.45;;;25.40;66.30;25.50;101267.00;;;;5038129;28;20403;-64
2021/06/18 09:00:27;;;;;;;18.23;16.00;;;25.60;66.40;25.70;101269.00;;;;5040288;28;20045;-64
2021/06/18 09:02:55;;;;;;;17.02;14.93;;;25.80;65.00;25.80;101260.00;;;;5048125;28;21564;-64
2021/06/18 09:05:21;;;;;;;17.42;15.35;;;25.90;64.60;25.90;101258.00;;;;5040605;28;20078;-63
2021/06/18 09:08:04;;;;;;;17.30;15.32;;;26.00;64.20;26.00;101252.00;;;;5037964;28;20080;-65
2021/06/18 09:10:42;;;;;;;19.02;15.75;;;26.20;64.00;26.10;101264.00;;;;5055412;28;20083;-63
2021/06/18 09:13:19;;;;;;;19.08;14.70;;;26.20;63.20;26.30;101267.00;;;;5038324;28;20052;-63
2021/06/18 09:15:51;;;;;;;;;;;26.40;63.70;26.50;101268.00;;;;5037208;28;20052;-63
2021/06/18 09:18:34;;;;;;;20.33;16.80;;;26.60;62.40;26.70;101273.00;;;;5036614;28;20027;-66
2021/06/18 09:21:03;;;;;;;17.48;14.45;;;26.70;62.30;26.80;101275.00;;;;5050378;28;20047;-66
2021/06/18 09:23:37;;;;;;;18.25;15.10;;;26.90;62.50;26.90;101266.00;;;;5039404;28;20079;-66
2021/06/18 09:26:38;;;;;;;19.58;14.90;;;26.90;61.80;26.90;101263.00;;;;5033894;28;20056;-66
2021/06/18 09:29:16;;;;;;;18.80;13.95;;;27.20;60.90;27.10;101262.00;;;;5035073;28;20559;-66
2021/06/18 09:32:08;;;;;;;17.35;13.35;;;27.20;61.80;27.30;101261.00;;;;5028297;28;20439;-65
2021/06/18 09:34:42;;;;;;;17.15;13.98;;;27.40;60.80;27.60;101273.00;;;;5036134;28;20787;-66
2021/06/18 09:37:36;;;;;;;15.52;12.93;;;27.60;60.70;27.70;101283.00;;;;5040097;28;20040;-66
2021/06/18 09:40:20;;;;;;;17.67;14.35;;;27.70;59.10;27.80;101274.00;;;;5040637;28;20040;-66
2021/06/18 09:42:56;;;;;;;18.38;15.18;;;27.90;60.00;27.90;101273.00;;;;5055781;28;20121;-67
2021/06/18 09:45:29;;;;;;;14.57;12.77;;;27.90;59.40;27.90;101273.00;;;;5041903;28;20055;-66
2021/06/18 09:48:16;;;;;;;16.05;14.43;;;28.00;59.90;28.00;101268.00;;;;5040150;28;20048;-66
2021/06/18 09:50:46;;;;;;;18.95;16.08;;;28.10;59.50;28.20;101274.00;;;;5042620;28;20423;-65
2021/06/18 09:53:24;;;;;;;22.58;15.98;;;28.20;58.90;28.40;101272.00;;;;5052566;28;20064;-66
2021/06/18 09:56:22;;;;;;;19.98;15.18;;;28.40;58.80;28.40;101270.00;;;;5055334;28;20047;-66
2021/06/18 09:58:48;;;;;;;21.35;14.60;;;28.50;57.40;28.60;101265.00;;;;5031065;28;20128;-66
2021/06/18 10:01:25;;;;;;;17.67;15.20;;;28.60;58.30;28.70;101254.00;;;;5041827;28;20045;-66
2021/06/18 10:04:12;;;;;;;20.38;16.35;;;28.70;57.90;28.80;101261.00;;;;5055090;28;20045;-65
2021/06/18 10:06:41;;;;;;;19.80;16.23;;;28.80;56.10;28.90;101252.00;;;;5038732;28;20550;-66
2021/06/18 10:09:10;;;;;;;21.77;15.98;;;28.90;57.10;29.00;101257.00;;;;5055300;28;20041;-66
2021/06/18 10:11:43;;;;;;;17.90;16.00;;;29.00;56.70;29.10;101261.00;;;;5032682;28;20049;-66
2021/06/18 10:14:09;;;;;;;17.70;14.90;;;29.10;56.60;29.20;101255.00;;;;5038227;28;20132;-67
2021/06/18 10:16:35;;;;;;;;;;;29.20;55.20;29.00;101243.00;;;;5024813;28;20037;-67
2021/06/18 10:19:02;;;;;;;17.75;14.77;;;29.20;55.20;29.20;101248.00;;;;5039963;28;19931;-67
2021/06/18 10:21:33;;;;;;;18.05;13.35;;;29.20;56.60;29.30;101248.00;;;;5038660;28;20056;-65
2021/06/18 10:24:04;;;;;;;25.30;17.80;;;29.40;56.90;29.40;101253.00;;;;5052272;28;20037;-66
2021/06/18 10:26:31;;;;;;;19.52;16.15;;;29.50;55.90;29.50;101247.00;;;;5039141;28;20178;-66
2021/06/18 10:29:00;;;;;;;20.98;15.80;;;29.50;55.50;29.60;101243.00;;;;5038928;28;20037;-67
2021/06/18 10:31:31;;;;;;;19.58;15.70;;;29.60;54.60;29.70;101251.00;;;;5038018;28;20055;-67
2021/06/18 10:34:09;;;;;;;18.08;13.27;;;29.70;55.20;29.90;101249.00;;;;5035289;28;20033;-66
2021/06/18 10:36:36;;;;;;;22.25;16.40;;;29.90;54.40;30.00;101242.00;;;;5041102;28;20136;-66
2021/06/18 10:39:14;;;;;;;20.05;15.75;;;30.00;54.30;30.10;101233.00;;;;5018617;28;20048;-67
2021/06/18 10:41:58;;;;;;;21.15;17.00;;;30.10;54.00;30.00;101233.00;;;;5039828;28;20037;-67
2021/06/18 10:44:39;;;;;;;18.65;14.90;;;30.10;52.30;30.00;101228.00;;;;5040828;28;20049;-65
2021/06/18 10:47:24;;;;;;;17.42;13.48;;;30.10;53.50;29.90;101228.00;;;;5042404;28;20118;-66